sensor_id;sensor_type;location;lat;lon;timestamp;P1;durP1;ratioP1;P2;durP2;ratioP2
11588;SDS011;5850;51.360;12.362;2022-12-18T00:00:05;67.13;;;39.65;;
11588;SDS011;5850;51.360;12.362;2022-12-18T00:02:34;67.95;;;40.10;;
11588;SDS011;5850;51.360;12.362;2022-12-18T00:05:03;66.78;;;39.70;;
11588;SDS011;5850;51.360;12.362;2022-12-18T00:07:31;66.65;;;39.17;;
11588;SDS011;5850;51.360;12.362;2022-12-18T00:10:00;69.07;;;41.75;;
11588;SDS011;5850;51.360;12.362;2022-12-18T00:12:29;67.43;;;40.05;;
11588;SDS011;5850;51.360;12.362;2022-12-18T00:14:57;62.22;;;39.08;;
11588;SDS011;5850;51.360;12.362;2022-12-18T00:17:26;64.43;;;37.63;;
11588;SDS011;5850;51.360;12.362;2022-12-18T00:19:54;65.20;;;39.40;;
11588;SDS011;5850;51.360;12.362;2022-12-18T00:22:23;66.22;;;41.80;;
11588;SDS011;5850;51.360;12.362;2022-12-18T00:24:51;67.38;;;40.97;;
11588;SDS011;5850;51.360;12.362;2022-12-18T00:27:19;66.22;;;40.80;;
11588;SDS011;5850;51.360;12.362;2022-12-18T00:29:48;64.65;;;39.92;;
11588;SDS011;5850;51.360;12.362;2022-12-18T00:32:16;64.30;;;39.50;;
11588;SDS011;5850;51.360;12.362;2022-12-18T00:34:45;62.65;;;37.70;;
11588;SDS011;5850;51.360;12.362;2022-12-18T00:37:14;59.58;;;37.83;;
11588;SDS011;5850;51.360;12.362;2022-12-18T00:39:47;61.65;;;38.85;;
11588;SDS011;5850;51.360;12.362;2022-12-18T00:42:16;65.82;;;42.00;;
11588;SDS011;5850;51.360;12.362;2022-12-18T00:45:03;63.22;;;38.95;;
11588;SDS011;5850;51.360;12.362;2022-12-18T00:47:37;56.70;;;35.88;;
11588;SDS011;5850;51.360;12.362;2022-12-18T00:50:07;61.13;;;38.13;;
11588;SDS011;5850;51.360;12.362;2022-12-18T00:52:36;66.28;;;38.47;;
11588;SDS011;5850;51.360;12.362;2022-12-18T00:55:07;60.28;;;36.83;;
11588;SDS011;5850;51.360;12.362;2022-12-18T00:57:36;61.85;;;37.33;;
11588;SDS011;5850;51.360;12.362;2022-12-18T01:00:05;58.80;;;36.22;;
11588;SDS011;5850;51.360;12.362;2022-12-18T01:02:35;55.55;;;36.45;;
11588;SDS011;5850;51.360;12.362;2022-12-18T01:05:04;62.38;;;37.30;;
11588;SDS011;5850;51.360;12.362;2022-12-18T01:07:33;51.63;;;33.20;;
11588;SDS011;5850;51.360;12.362;2022-12-18T01:10:02;58.50;;;37.13;;
11588;SDS011;5850;51.360;12.362;2022-12-18T01:12:31;58.72;;;35.35;;
11588;SDS011;5850;51.360;12.362;2022-12-18T01:15:00;63.20;;;35.92;;
11588;SDS011;5850;51.360;12.362;2022-12-18T01:17:29;58.00;;;36.10;;
11588;SDS011;5850;51.360;12.362;2022-12-18T01:19:58;57.78;;;35.58;;
11588;SDS011;5850;51.360;12.362;2022-12-18T01:22:26;58.90;;;38.00;;
11588;SDS011;5850;51.360;12.362;2022-12-18T01:24:55;59.40;;;36.38;;
11588;SDS011;5850;51.360;12.362;2022-12-18T01:27:23;54.05;;;34.63;;
11588;SDS011;5850;51.360;12.362;2022-12-18T01:29:52;56.55;;;35.40;;
11588;SDS011;5850;51.360;12.362;2022-12-18T01:32:20;56.38;;;35.17;;
11588;SDS011;5850;51.360;12.362;2022-12-18T01:34:49;52.95;;;34.33;;
11588;SDS011;5850;51.360;12.362;2022-12-18T01:37:18;55.78;;;34.58;;
11588;SDS011;5850;51.360;12.362;2022-12-18T01:39:46;57.65;;;34.22;;
11588;SDS011;5850;51.360;12.362;2022-12-18T01:42:16;61.35;;;35.67;;
11588;SDS011;5850;51.360;12.362;2022-12-18T01:47:44;53.47;;;33.72;;
11588;SDS011;5850;51.360;12.362;2022-12-18T01:50:36;53.85;;;34.28;;
11588;SDS011;5850;51.360;12.362;2022-12-18T01:53:18;51.95;;;32.38;;
11588;SDS011;5850;51.360;12.362;2022-12-18T01:55:53;62.78;;;34.70;;
11588;SDS011;5850;51.360;12.362;2022-12-18T02:01:29;51.78;;;33.35;;
11588;SDS011;5850;51.360;12.362;2022-12-18T02:10:02;53.15;;;32.75;;
11588;SDS011;5850;51.360;12.362;2022-12-18T02:13:04;54.42;;;33.90;;
11588;SDS011;5850;51.360;12.362;2022-12-18T02:16:16;50.75;;;32.42;;
11588;SDS011;5850;51.360;12.362;2022-12-18T02:19:08;46.70;;;30.05;;
11588;SDS011;5850;51.360;12.362;2022-12-18T02:22:21;53.00;;;30.85;;
11588;SDS011;5850;51.360;12.362;2022-12-18T02:28:06;52.42;;;31.42;;
11588;SDS011;5850;51.360;12.362;2022-12-18T02:30:38;55.70;;;32.75;;
11588;SDS011;5850;51.360;12.362;2022-12-18T02:33:08;55.67;;;34.17;;
11588;SDS011;5850;51.360;12.362;2022-12-18T02:35:39;50.60;;;31.27;;
11588;SDS011;5850;51.360;12.362;2022-12-18T02:38:09;52.60;;;30.48;;
11588;SDS011;5850;51.360;12.362;2022-12-18T02:40:37;49.03;;;30.48;;
11588;SDS011;5850;51.360;12.362;2022-12-18T02:43:08;50.10;;;30.52;;
11588;SDS011;5850;51.360;12.362;2022-12-18T02:45:49;50.90;;;31.88;;
11588;SDS011;5850;51.360;12.362;2022-12-18T02:48:25;50.10;;;31.10;;
11588;SDS011;5850;51.360;12.362;2022-12-18T02:51:03;50.00;;;28.95;;
11588;SDS011;5850;51.360;12.362;2022-12-18T02:53:53;49.17;;;29.00;;
11588;SDS011;5850;51.360;12.362;2022-12-18T02:56:43;44.95;;;29.90;;
11588;SDS011;5850;51.360;12.362;2022-12-18T02:59:19;53.58;;;33.03;;
11588;SDS011;5850;51.360;12.362;2022-12-18T03:04:55;47.35;;;29.77;;
11588;SDS011;5850;51.360;12.362;2022-12-18T03:07:50;45.83;;;29.85;;
11588;SDS011;5850;51.360;12.362;2022-12-18T03:10:35;49.08;;;30.25;;
11588;SDS011;5850;51.360;12.362;2022-12-18T03:13:13;46.95;;;28.58;;
11588;SDS011;5850;51.360;12.362;2022-12-18T03:15:49;49.08;;;28.92;;
11588;SDS011;5850;51.360;12.362;2022-12-18T03:18:22;47.33;;;27.83;;
11588;SDS011;5850;51.360;12.362;2022-12-18T03:20:56;45.65;;;28.50;;
11588;SDS011;5850;51.360;12.362;2022-12-18T03:23:29;49.33;;;30.42;;
11588;SDS011;5850;51.360;12.362;2022-12-18T03:26:07;46.05;;;28.45;;
11588;SDS011;5850;51.360;12.362;2022-12-18T03:28:39;39.97;;;25.88;;
11588;SDS011;5850;51.360;12.362;2022-12-18T03:31:18;43.17;;;27.83;;
11588;SDS011;5850;51.360;12.362;2022-12-18T03:33:52;42.53;;;27.50;;
11588;SDS011;5850;51.360;12.362;2022-12-18T03:36:23;43.08;;;29.00;;
11588;SDS011;5850;51.360;12.362;2022-12-18T03:38:52;43.42;;;26.65;;
11588;SDS011;5850;51.360;12.362;2022-12-18T03:41:35;43.38;;;26.80;;
11588;SDS011;5850;51.360;12.362;2022-12-18T03:47:56;38.28;;;24.27;;
11588;SDS011;5850;51.360;12.362;2022-12-18T03:50:34;41.13;;;24.50;;
11588;SDS011;5850;51.360;12.362;2022-12-18T03:53:19;35.45;;;24.02;;
11588;SDS011;5850;51.360;12.362;2022-12-18T03:55:54;39.45;;;25.90;;
11588;SDS011;5850;51.360;12.362;2022-12-18T03:58:24;39.45;;;23.27;;
11588;SDS011;5850;51.360;12.362;2022-12-18T04:00:55;37.28;;;24.23;;
11588;SDS011;5850;51.360;12.362;2022-12-18T04:03:28;40.35;;;25.50;;
11588;SDS011;5850;51.360;12.362;2022-12-18T04:06:01;42.60;;;24.02;;
11588;SDS011;5850;51.360;12.362;2022-12-18T04:08:30;39.22;;;23.15;;
11588;SDS011;5850;51.360;12.362;2022-12-18T04:11:01;38.10;;;23.70;;
11588;SDS011;5850;51.360;12.362;2022-12-18T04:13:37;39.47;;;24.85;;
11588;SDS011;5850;51.360;12.362;2022-12-18T04:16:06;34.75;;;22.42;;
11588;SDS011;5850;51.360;12.362;2022-12-18T04:18:35;35.63;;;22.73;;
11588;SDS011;5850;51.360;12.362;2022-12-18T04:21:04;36.40;;;23.10;;
11588;SDS011;5850;51.360;12.362;2022-12-18T04:23:32;34.90;;;21.73;;
11588;SDS011;5850;51.360;12.362;2022-12-18T04:26:02;33.53;;;21.95;;
11588;SDS011;5850;51.360;12.362;2022-12-18T04:28:30;33.70;;;21.23;;
11588;SDS011;5850;51.360;12.362;2022-12-18T04:30:59;35.63;;;22.27;;
11588;SDS011;5850;51.360;12.362;2022-12-18T04:33:27;33.13;;;22.15;;
11588;SDS011;5850;51.360;12.362;2022-12-18T04:35:56;33.70;;;22.13;;
11588;SDS011;5850;51.360;12.362;2022-12-18T04:38:25;32.33;;;22.23;;
11588;SDS011;5850;51.360;12.362;2022-12-18T04:40:53;35.42;;;22.67;;
11588;SDS011;5850;51.360;12.362;2022-12-18T04:43:21;33.90;;;20.48;;
11588;SDS011;5850;51.360;12.362;2022-12-18T04:45:50;31.40;;;21.33;;
11588;SDS011;5850;51.360;12.362;2022-12-18T04:48:19;28.67;;;20.35;;
11588;SDS011;5850;51.360;12.362;2022-12-18T04:50:48;34.55;;;21.60;;
11588;SDS011;5850;51.360;12.362;2022-12-18T04:53:16;34.83;;;19.67;;
11588;SDS011;5850;51.360;12.362;2022-12-18T04:55:45;29.40;;;19.85;;
11588;SDS011;5850;51.360;12.362;2022-12-18T04:58:13;32.35;;;19.98;;
11588;SDS011;5850;51.360;12.362;2022-12-18T05:00:42;31.25;;;19.45;;
11588;SDS011;5850;51.360;12.362;2022-12-18T05:03:10;30.85;;;19.60;;
11588;SDS011;5850;51.360;12.362;2022-12-18T05:05:39;29.65;;;18.80;;
11588;SDS011;5850;51.360;12.362;2022-12-18T05:08:07;28.80;;;19.85;;
11588;SDS011;5850;51.360;12.362;2022-12-18T05:10:36;33.25;;;19.90;;
11588;SDS011;5850;51.360;12.362;2022-12-18T05:13:04;29.98;;;19.50;;
11588;SDS011;5850;51.360;12.362;2022-12-18T05:15:33;33.45;;;18.83;;
11588;SDS011;5850;51.360;12.362;2022-12-18T05:18:02;27.20;;;18.10;;
11588;SDS011;5850;51.360;12.362;2022-12-18T05:23:06;27.92;;;19.50;;
11588;SDS011;5850;51.360;12.362;2022-12-18T05:25:35;32.15;;;19.20;;
11588;SDS011;5850;51.360;12.362;2022-12-18T05:28:04;28.65;;;18.58;;
11588;SDS011;5850;51.360;12.362;2022-12-18T05:30:33;27.05;;;18.40;;
11588;SDS011;5850;51.360;12.362;2022-12-18T05:33:01;32.78;;;19.35;;
11588;SDS011;5850;51.360;12.362;2022-12-18T05:35:30;29.77;;;18.65;;
11588;SDS011;5850;51.360;12.362;2022-12-18T05:37:58;28.20;;;17.48;;
11588;SDS011;5850;51.360;12.362;2022-12-18T05:40:27;30.98;;;19.35;;
11588;SDS011;5850;51.360;12.362;2022-12-18T05:42:56;29.58;;;17.20;;
11588;SDS011;5850;51.360;12.362;2022-12-18T05:45:25;25.27;;;17.42;;
11588;SDS011;5850;51.360;12.362;2022-12-18T05:47:53;25.27;;;17.33;;
11588;SDS011;5850;51.360;12.362;2022-12-18T05:50:22;26.50;;;18.08;;
11588;SDS011;5850;51.360;12.362;2022-12-18T05:52:51;24.35;;;16.95;;
11588;SDS011;5850;51.360;12.362;2022-12-18T05:55:19;26.35;;;16.65;;
11588;SDS011;5850;51.360;12.362;2022-12-18T05:57:48;25.40;;;16.25;;
11588;SDS011;5850;51.360;12.362;2022-12-18T06:00:17;23.23;;;16.40;;
11588;SDS011;5850;51.360;12.362;2022-12-18T06:02:46;23.73;;;15.75;;
11588;SDS011;5850;51.360;12.362;2022-12-18T06:05:15;26.95;;;15.77;;
11588;SDS011;5850;51.360;12.362;2022-12-18T06:07:43;23.52;;;15.32;;
11588;SDS011;5850;51.360;12.362;2022-12-18T06:10:12;25.10;;;15.65;;
11588;SDS011;5850;51.360;12.362;2022-12-18T06:12:41;21.02;;;14.88;;
11588;SDS011;5850;51.360;12.362;2022-12-18T06:15:10;25.75;;;16.77;;
11588;SDS011;5850;51.360;12.362;2022-12-18T06:17:39;23.80;;;14.80;;
11588;SDS011;5850;51.360;12.362;2022-12-18T06:20:08;25.27;;;16.33;;
11588;SDS011;5850;51.360;12.362;2022-12-18T06:22:36;29.50;;;19.45;;
11588;SDS011;5850;51.360;12.362;2022-12-18T06:25:05;29.98;;;19.67;;
11588;SDS011;5850;51.360;12.362;2022-12-18T06:27:35;30.70;;;19.13;;
11588;SDS011;5850;51.360;12.362;2022-12-18T06:30:04;26.38;;;17.98;;
11588;SDS011;5850;51.360;12.362;2022-12-18T06:32:33;25.95;;;17.33;;
11588;SDS011;5850;51.360;12.362;2022-12-18T06:35:02;26.58;;;15.75;;
11588;SDS011;5850;51.360;12.362;2022-12-18T06:37:31;23.13;;;16.02;;
11588;SDS011;5850;51.360;12.362;2022-12-18T06:40:00;24.50;;;15.50;;
11588;SDS011;5850;51.360;12.362;2022-12-18T06:42:28;23.30;;;15.93;;
11588;SDS011;5850;51.360;12.362;2022-12-18T06:44:58;22.67;;;16.30;;
11588;SDS011;5850;51.360;12.362;2022-12-18T06:47:26;21.60;;;14.65;;
11588;SDS011;5850;51.360;12.362;2022-12-18T06:49:55;22.23;;;15.00;;
11588;SDS011;5850;51.360;12.362;2022-12-18T06:52:24;23.40;;;15.45;;
11588;SDS011;5850;51.360;12.362;2022-12-18T06:54:52;23.77;;;15.05;;
11588;SDS011;5850;51.360;12.362;2022-12-18T06:57:21;25.45;;;15.10;;
11588;SDS011;5850;51.360;12.362;2022-12-18T06:59:49;20.98;;;14.73;;
11588;SDS011;5850;51.360;12.362;2022-12-18T07:02:18;24.05;;;15.25;;
11588;SDS011;5850;51.360;12.362;2022-12-18T07:04:47;20.50;;;14.35;;
11588;SDS011;5850;51.360;12.362;2022-12-18T07:07:16;25.38;;;15.88;;
11588;SDS011;5850;51.360;12.362;2022-12-18T07:09:45;22.35;;;16.23;;
11588;SDS011;5850;51.360;12.362;2022-12-18T07:12:13;22.83;;;16.33;;
11588;SDS011;5850;51.360;12.362;2022-12-18T07:14:42;26.80;;;16.50;;
11588;SDS011;5850;51.360;12.362;2022-12-18T07:17:11;22.67;;;15.75;;
11588;SDS011;5850;51.360;12.362;2022-12-18T07:19:39;23.50;;;15.43;;
11588;SDS011;5850;51.360;12.362;2022-12-18T07:22:08;22.73;;;16.45;;
11588;SDS011;5850;51.360;12.362;2022-12-18T07:24:37;23.42;;;16.98;;
11588;SDS011;5850;51.360;12.362;2022-12-18T07:27:05;27.55;;;18.20;;
11588;SDS011;5850;51.360;12.362;2022-12-18T07:29:35;28.35;;;19.50;;
11588;SDS011;5850;51.360;12.362;2022-12-18T07:32:04;30.10;;;18.67;;
11588;SDS011;5850;51.360;12.362;2022-12-18T07:34:34;28.45;;;19.15;;
11588;SDS011;5850;51.360;12.362;2022-12-18T07:37:02;28.05;;;19.40;;
11588;SDS011;5850;51.360;12.362;2022-12-18T07:39:31;29.67;;;20.75;;
11588;SDS011;5850;51.360;12.362;2022-12-18T07:41:59;25.73;;;18.17;;
11588;SDS011;5850;51.360;12.362;2022-12-18T07:44:46;28.63;;;20.17;;
11588;SDS011;5850;51.360;12.362;2022-12-18T07:47:15;29.25;;;18.77;;
11588;SDS011;5850;51.360;12.362;2022-12-18T07:49:43;29.48;;;18.20;;
11588;SDS011;5850;51.360;12.362;2022-12-18T07:52:12;27.05;;;17.77;;
11588;SDS011;5850;51.360;12.362;2022-12-18T07:54:40;28.48;;;16.85;;
11588;SDS011;5850;51.360;12.362;2022-12-18T07:57:09;26.83;;;18.67;;
11588;SDS011;5850;51.360;12.362;2022-12-18T07:59:57;22.25;;;16.40;;
11588;SDS011;5850;51.360;12.362;2022-12-18T08:02:25;26.30;;;18.73;;
11588;SDS011;5850;51.360;12.362;2022-12-18T08:04:54;24.23;;;17.92;;
11588;SDS011;5850;51.360;12.362;2022-12-18T08:07:22;28.77;;;19.80;;
11588;SDS011;5850;51.360;12.362;2022-12-18T08:09:51;26.83;;;18.00;;
11588;SDS011;5850;51.360;12.362;2022-12-18T08:12:19;24.40;;;17.75;;
11588;SDS011;5850;51.360;12.362;2022-12-18T08:14:48;25.25;;;18.35;;
11588;SDS011;5850;51.360;12.362;2022-12-18T08:17:16;27.33;;;19.00;;
11588;SDS011;5850;51.360;12.362;2022-12-18T08:19:46;26.52;;;18.70;;
11588;SDS011;5850;51.360;12.362;2022-12-18T08:22:14;29.08;;;19.35;;
11588;SDS011;5850;51.360;12.362;2022-12-18T08:24:43;27.25;;;18.40;;
11588;SDS011;5850;51.360;12.362;2022-12-18T08:27:12;32.63;;;19.88;;
11588;SDS011;5850;51.360;12.362;2022-12-18T08:29:56;27.75;;;18.48;;
11588;SDS011;5850;51.360;12.362;2022-12-18T08:32:25;30.52;;;19.83;;
11588;SDS011;5850;51.360;12.362;2022-12-18T08:34:57;35.22;;;20.48;;
11588;SDS011;5850;51.360;12.362;2022-12-18T08:37:26;31.30;;;21.52;;
11588;SDS011;5850;51.360;12.362;2022-12-18T08:39:55;30.20;;;20.40;;
11588;SDS011;5850;51.360;12.362;2022-12-18T08:42:23;29.90;;;19.85;;
11588;SDS011;5850;51.360;12.362;2022-12-18T08:45:12;32.60;;;19.17;;
11588;SDS011;5850;51.360;12.362;2022-12-18T08:47:43;29.52;;;19.80;;
11588;SDS011;5850;51.360;12.362;2022-12-18T08:50:14;29.55;;;19.52;;
11588;SDS011;5850;51.360;12.362;2022-12-18T08:52:43;31.92;;;20.85;;
11588;SDS011;5850;51.360;12.362;2022-12-18T08:55:12;27.73;;;18.58;;
11588;SDS011;5850;51.360;12.362;2022-12-18T08:57:40;26.20;;;19.10;;
11588;SDS011;5850;51.360;12.362;2022-12-18T09:00:09;28.23;;;21.10;;
11588;SDS011;5850;51.360;12.362;2022-12-18T09:02:40;28.67;;;19.67;;
11588;SDS011;5850;51.360;12.362;2022-12-18T09:05:09;30.73;;;21.35;;
11588;SDS011;5850;51.360;12.362;2022-12-18T09:07:37;30.05;;;20.40;;
11588;SDS011;5850;51.360;12.362;2022-12-18T09:10:06;29.25;;;19.23;;
11588;SDS011;5850;51.360;12.362;2022-12-18T09:12:35;24.75;;;17.08;;
11588;SDS011;5850;51.360;12.362;2022-12-18T09:15:05;30.25;;;18.70;;
11588;SDS011;5850;51.360;12.362;2022-12-18T09:17:34;26.25;;;18.02;;
11588;SDS011;5850;51.360;12.362;2022-12-18T09:20:03;26.35;;;20.75;;
11588;SDS011;5850;51.360;12.362;2022-12-18T09:22:32;31.08;;;19.08;;
11588;SDS011;5850;51.360;12.362;2022-12-18T09:25:00;27.02;;;19.10;;
11588;SDS011;5850;51.360;12.362;2022-12-18T09:27:29;29.98;;;19.60;;
11588;SDS011;5850;51.360;12.362;2022-12-18T09:29:58;29.38;;;19.42;;
11588;SDS011;5850;51.360;12.362;2022-12-18T09:32:26;28.20;;;19.88;;
11588;SDS011;5850;51.360;12.362;2022-12-18T09:34:55;28.73;;;19.77;;
11588;SDS011;5850;51.360;12.362;2022-12-18T09:37:24;25.42;;;18.85;;
11588;SDS011;5850;51.360;12.362;2022-12-18T09:39:52;30.02;;;19.98;;
11588;SDS011;5850;51.360;12.362;2022-12-18T09:42:21;23.67;;;17.27;;
11588;SDS011;5850;51.360;12.362;2022-12-18T09:44:50;28.80;;;19.35;;
11588;SDS011;5850;51.360;12.362;2022-12-18T09:47:23;23.58;;;18.67;;
11588;SDS011;5850;51.360;12.362;2022-12-18T09:50:00;24.88;;;17.88;;
11588;SDS011;5850;51.360;12.362;2022-12-18T09:52:47;27.38;;;18.35;;
11588;SDS011;5850;51.360;12.362;2022-12-18T10:01:01;24.77;;;17.17;;
11588;SDS011;5850;51.360;12.362;2022-12-18T10:03:29;24.77;;;16.80;;
11588;SDS011;5850;51.360;12.362;2022-12-18T10:08:58;23.73;;;17.35;;
11588;SDS011;5850;51.360;12.362;2022-12-18T10:11:57;24.88;;;17.25;;
11588;SDS011;5850;51.360;12.362;2022-12-18T10:20:51;29.88;;;18.35;;
11588;SDS011;5850;51.360;12.362;2022-12-18T10:26:14;28.42;;;19.08;;
11588;SDS011;5850;51.360;12.362;2022-12-18T10:28:43;24.55;;;17.55;;
11588;SDS011;5850;51.360;12.362;2022-12-18T10:31:14;24.15;;;17.75;;
11588;SDS011;5850;51.360;12.362;2022-12-18T10:33:50;28.08;;;18.02;;
11588;SDS011;5850;51.360;12.362;2022-12-18T10:36:19;31.10;;;20.05;;
11588;SDS011;5850;51.360;12.362;2022-12-18T10:38:51;31.33;;;20.27;;
11588;SDS011;5850;51.360;12.362;2022-12-18T10:46:53;23.17;;;16.40;;
11588;SDS011;5850;51.360;12.362;2022-12-18T10:49:36;25.25;;;16.92;;
11588;SDS011;5850;51.360;12.362;2022-12-18T10:52:19;24.25;;;15.65;;
11588;SDS011;5850;51.360;12.362;2022-12-18T10:59:58;26.05;;;18.05;;
11588;SDS011;5850;51.360;12.362;2022-12-18T11:02:46;24.45;;;17.15;;
11588;SDS011;5850;51.360;12.362;2022-12-18T11:05:50;22.67;;;16.40;;
11588;SDS011;5850;51.360;12.362;2022-12-18T11:08:20;21.80;;;15.68;;
11588;SDS011;5850;51.360;12.362;2022-12-18T11:10:51;23.40;;;15.73;;
11588;SDS011;5850;51.360;12.362;2022-12-18T11:13:21;22.00;;;14.93;;
11588;SDS011;5850;51.360;12.362;2022-12-18T11:15:52;21.20;;;14.18;;
11588;SDS011;5850;51.360;12.362;2022-12-18T11:18:23;19.23;;;13.82;;
11588;SDS011;5850;51.360;12.362;2022-12-18T11:21:00;18.48;;;13.60;;
11588;SDS011;5850;51.360;12.362;2022-12-18T11:23:49;18.77;;;14.30;;
11588;SDS011;5850;51.360;12.362;2022-12-18T11:26:20;17.77;;;13.00;;
11588;SDS011;5850;51.360;12.362;2022-12-18T11:28:51;22.30;;;13.93;;
11588;SDS011;5850;51.360;12.362;2022-12-18T11:31:37;19.38;;;13.93;;
11588;SDS011;5850;51.360;12.362;2022-12-18T11:36:55;21.20;;;14.57;;
11588;SDS011;5850;51.360;12.362;2022-12-18T11:39:42;23.23;;;14.43;;
11588;SDS011;5850;51.360;12.362;2022-12-18T11:42:20;21.63;;;14.48;;
11588;SDS011;5850;51.360;12.362;2022-12-18T11:47:42;20.83;;;13.77;;
11588;SDS011;5850;51.360;12.362;2022-12-18T11:50:21;23.50;;;14.77;;
11588;SDS011;5850;51.360;12.362;2022-12-18T11:52:53;17.20;;;12.93;;
11588;SDS011;5850;51.360;12.362;2022-12-18T11:55:46;18.40;;;13.50;;
11588;SDS011;5850;51.360;12.362;2022-12-18T11:58:29;22.73;;;13.93;;
11588;SDS011;5850;51.360;12.362;2022-12-18T12:04:16;19.33;;;13.10;;
11588;SDS011;5850;51.360;12.362;2022-12-18T12:10:00;17.48;;;12.95;;
11588;SDS011;5850;51.360;12.362;2022-12-18T12:13:01;19.90;;;12.63;;
11588;SDS011;5850;51.360;12.362;2022-12-18T12:18:25;17.30;;;13.27;;
11588;SDS011;5850;51.360;12.362;2022-12-18T12:21:12;19.55;;;13.90;;
11588;SDS011;5850;51.360;12.362;2022-12-18T12:24:00;19.17;;;13.75;;
11588;SDS011;5850;51.360;12.362;2022-12-18T12:39:20;17.50;;;12.10;;
11588;SDS011;5850;51.360;12.362;2022-12-18T12:41:55;17.73;;;13.27;;
11588;SDS011;5850;51.360;12.362;2022-12-18T12:44:49;18.67;;;13.05;;
11588;SDS011;5850;51.360;12.362;2022-12-18T12:47:24;17.38;;;12.02;;
11588;SDS011;5850;51.360;12.362;2022-12-18T12:49:58;16.63;;;11.93;;
11588;SDS011;5850;51.360;12.362;2022-12-18T12:52:52;20.08;;;12.05;;
11588;SDS011;5850;51.360;12.362;2022-12-18T12:55:26;16.35;;;11.38;;
11588;SDS011;5850;51.360;12.362;2022-12-18T13:01:12;18.92;;;12.45;;
11588;SDS011;5850;51.360;12.362;2022-12-18T13:06:50;19.85;;;13.35;;
11588;SDS011;5850;51.360;12.362;2022-12-18T13:09:33;16.80;;;11.75;;
11588;SDS011;5850;51.360;12.362;2022-12-18T13:15:45;19.65;;;13.32;;
11588;SDS011;5850;51.360;12.362;2022-12-18T13:18:36;19.52;;;12.20;;
11588;SDS011;5850;51.360;12.362;2022-12-18T13:21:17;18.77;;;12.73;;
11588;SDS011;5850;51.360;12.362;2022-12-18T13:23:53;17.75;;;12.68;;
11588;SDS011;5850;51.360;12.362;2022-12-18T13:28:55;19.17;;;13.05;;
11588;SDS011;5850;51.360;12.362;2022-12-18T13:34:21;20.08;;;13.27;;
11588;SDS011;5850;51.360;12.362;2022-12-18T13:36:55;19.20;;;11.65;;
11588;SDS011;5850;51.360;12.362;2022-12-18T13:39:59;17.35;;;12.40;;
11588;SDS011;5850;51.360;12.362;2022-12-18T13:42:31;18.60;;;12.80;;
11588;SDS011;5850;51.360;12.362;2022-12-18T13:45:37;19.83;;;13.52;;
11588;SDS011;5850;51.360;12.362;2022-12-18T13:48:14;23.10;;;14.50;;
11588;SDS011;5850;51.360;12.362;2022-12-18T13:51:08;23.98;;;14.77;;
11588;SDS011;5850;51.360;12.362;2022-12-18T13:53:39;20.50;;;14.63;;
11588;SDS011;5850;51.360;12.362;2022-12-18T13:56:17;23.88;;;13.13;;
11588;SDS011;5850;51.360;12.362;2022-12-18T14:05:20;23.73;;;16.45;;
11588;SDS011;5850;51.360;12.362;2022-12-18T14:07:55;25.98;;;17.33;;
11588;SDS011;5850;51.360;12.362;2022-12-18T14:10:41;25.42;;;16.33;;
11588;SDS011;5850;51.360;12.362;2022-12-18T14:13:23;26.73;;;15.95;;
11588;SDS011;5850;51.360;12.362;2022-12-18T14:15:56;20.77;;;15.05;;
11588;SDS011;5850;51.360;12.362;2022-12-18T14:18:33;26.08;;;16.88;;
11588;SDS011;5850;51.360;12.362;2022-12-18T14:21:23;28.17;;;17.58;;
11588;SDS011;5850;51.360;12.362;2022-12-18T14:24:15;23.90;;;16.55;;
11588;SDS011;5850;51.360;12.362;2022-12-18T14:26:49;28.08;;;17.27;;
11588;SDS011;5850;51.360;12.362;2022-12-18T14:32:03;25.58;;;17.77;;
11588;SDS011;5850;51.360;12.362;2022-12-18T14:34:53;26.20;;;18.77;;
11588;SDS011;5850;51.360;12.362;2022-12-18T14:37:23;24.38;;;16.02;;
11588;SDS011;5850;51.360;12.362;2022-12-18T14:39:54;27.08;;;17.42;;
11588;SDS011;5850;51.360;12.362;2022-12-18T14:42:36;27.58;;;17.88;;
11588;SDS011;5850;51.360;12.362;2022-12-18T14:51:32;29.95;;;18.92;;
11588;SDS011;5850;51.360;12.362;2022-12-18T14:53:51;30.23;;;18.50;;
11588;SDS011;5850;51.360;12.362;2022-12-18T14:56:28;30.05;;;18.33;;
11588;SDS011;5850;51.360;12.362;2022-12-18T14:59:15;35.72;;;21.25;;
11588;SDS011;5850;51.360;12.362;2022-12-18T15:04:39;32.80;;;20.10;;
11588;SDS011;5850;51.360;12.362;2022-12-18T15:07:17;31.08;;;19.67;;
11588;SDS011;5850;51.360;12.362;2022-12-18T15:20:49;33.78;;;20.10;;
11588;SDS011;5850;51.360;12.362;2022-12-18T15:26:07;30.45;;;19.45;;
11588;SDS011;5850;51.360;12.362;2022-12-18T15:31:28;29.42;;;20.08;;
11588;SDS011;5850;51.360;12.362;2022-12-18T15:34:05;34.13;;;20.38;;
11588;SDS011;5850;51.360;12.362;2022-12-18T15:36:50;42.42;;;24.92;;
11588;SDS011;5850;51.360;12.362;2022-12-18T15:39:18;34.13;;;21.48;;
11588;SDS011;5850;51.360;12.362;2022-12-18T15:41:46;34.90;;;21.80;;
11588;SDS011;5850;51.360;12.362;2022-12-18T15:44:32;32.97;;;20.88;;
11588;SDS011;5850;51.360;12.362;2022-12-18T15:47:01;34.15;;;21.42;;
11588;SDS011;5850;51.360;12.362;2022-12-18T15:49:31;35.35;;;21.48;;
11588;SDS011;5850;51.360;12.362;2022-12-18T15:51:59;30.73;;;20.13;;
11588;SDS011;5850;51.360;12.362;2022-12-18T15:54:29;31.88;;;20.40;;
11588;SDS011;5850;51.360;12.362;2022-12-18T15:57:15;34.92;;;21.02;;
11588;SDS011;5850;51.360;12.362;2022-12-18T15:59:53;31.58;;;21.58;;
11588;SDS011;5850;51.360;12.362;2022-12-18T16:02:24;35.03;;;22.50;;
11588;SDS011;5850;51.360;12.362;2022-12-18T16:04:54;37.40;;;22.10;;
11588;SDS011;5850;51.360;12.362;2022-12-18T16:07:23;42.83;;;25.23;;
11588;SDS011;5850;51.360;12.362;2022-12-18T16:09:55;45.47;;;24.30;;
11588;SDS011;5850;51.360;12.362;2022-12-18T16:12:27;40.58;;;24.92;;
11588;SDS011;5850;51.360;12.362;2022-12-18T16:14:55;35.70;;;22.60;;
11588;SDS011;5850;51.360;12.362;2022-12-18T16:17:24;38.88;;;23.05;;
11588;SDS011;5850;51.360;12.362;2022-12-18T16:19:53;35.00;;;22.48;;
11588;SDS011;5850;51.360;12.362;2022-12-18T16:22:25;35.88;;;22.15;;
11588;SDS011;5850;51.360;12.362;2022-12-18T16:24:55;41.83;;;23.80;;
11588;SDS011;5850;51.360;12.362;2022-12-18T16:27:25;40.13;;;25.05;;
11588;SDS011;5850;51.360;12.362;2022-12-18T16:29:53;44.28;;;25.63;;
11588;SDS011;5850;51.360;12.362;2022-12-18T16:32:22;35.10;;;21.80;;
11588;SDS011;5850;51.360;12.362;2022-12-18T16:34:50;38.83;;;24.20;;
11588;SDS011;5850;51.360;12.362;2022-12-18T16:37:19;37.28;;;23.13;;
11588;SDS011;5850;51.360;12.362;2022-12-18T16:39:47;37.65;;;24.33;;
11588;SDS011;5850;51.360;12.362;2022-12-18T16:42:17;43.33;;;25.27;;
11588;SDS011;5850;51.360;12.362;2022-12-18T16:44:46;45.35;;;26.67;;
11588;SDS011;5850;51.360;12.362;2022-12-18T16:47:16;47.47;;;27.77;;
11588;SDS011;5850;51.360;12.362;2022-12-18T16:49:45;43.10;;;26.40;;
11588;SDS011;5850;51.360;12.362;2022-12-18T16:52:17;40.88;;;24.60;;
11588;SDS011;5850;51.360;12.362;2022-12-18T16:54:45;38.22;;;24.40;;
11588;SDS011;5850;51.360;12.362;2022-12-18T16:57:16;38.65;;;23.95;;
11588;SDS011;5850;51.360;12.362;2022-12-18T16:59:50;39.70;;;24.58;;
11588;SDS011;5850;51.360;12.362;2022-12-18T17:02:22;40.70;;;24.42;;
11588;SDS011;5850;51.360;12.362;2022-12-18T17:04:55;38.40;;;22.88;;